sensor_id;sensor_type;location;lat;lon;timestamp;temperature;humidity
13482;DHT22;6813;60.352;15.746;2022-08-01T00:01:40;18.30;96.30
13482;DHT22;6813;60.352;15.746;2022-08-01T00:04:06;18.40;96.20
13482;DHT22;6813;60.352;15.746;2022-08-01T00:06:31;18.50;96.00
13482;DHT22;6813;60.352;15.746;2022-08-01T00:08:57;18.70;95.80
13482;DHT22;6813;60.352;15.746;2022-08-01T00:11:23;18.80;95.60
13482;DHT22;6813;60.352;15.746;2022-08-01T00:13:49;18.80;95.60
13482;DHT22;6813;60.352;15.746;2022-08-01T00:16:14;18.90;95.60
13482;DHT22;6813;60.352;15.746;2022-08-01T00:18:41;18.90;95.60
13482;DHT22;6813;60.352;15.746;2022-08-01T00:21:07;18.90;95.60
13482;DHT22;6813;60.352;15.746;2022-08-01T00:23:32;18.90;95.60
13482;DHT22;6813;60.352;15.746;2022-08-01T00:25:58;18.90;95.60
13482;DHT22;6813;60.352;15.746;2022-08-01T00:28:24;18.90;95.60
13482;DHT22;6813;60.352;15.746;2022-08-01T00:30:50;19.00;95.00
13482;DHT22;6813;60.352;15.746;2022-08-01T00:33:15;19.00;95.50
13482;DHT22;6813;60.352;15.746;2022-08-01T00:35:41;19.00;95.70
13482;DHT22;6813;60.352;15.746;2022-08-01T00:38:07;19.00;95.60
13482;DHT22;6813;60.352;15.746;2022-08-01T00:40:32;19.00;95.60
13482;DHT22;6813;60.352;15.746;2022-08-01T00:42:58;19.00;95.50
13482;DHT22;6813;60.352;15.746;2022-08-01T00:45:24;19.00;95.90
13482;DHT22;6813;60.352;15.746;2022-08-01T00:47:50;18.60;96.40
13482;DHT22;6813;60.352;15.746;2022-08-01T00:50:15;18.20;97.20
13482;DHT22;6813;60.352;15.746;2022-08-01T00:52:42;17.90;98.00
13482;DHT22;6813;60.352;15.746;2022-08-01T00:55:10;17.60;98.90
13482;DHT22;6813;60.352;15.746;2022-08-01T00:57:37;17.50;99.10
13482;DHT22;6813;60.352;15.746;2022-08-01T01:00:05;17.50;99.40
13482;DHT22;6813;60.352;15.746;2022-08-01T01:02:31;17.60;99.30
13482;DHT22;6813;60.352;15.746;2022-08-01T01:04:57;17.60;99.40
13482;DHT22;6813;60.352;15.746;2022-08-01T01:07:32;17.90;98.70
13482;DHT22;6813;60.352;15.746;2022-08-01T01:10:15;17.90;98.90
13482;DHT22;6813;60.352;15.746;2022-08-01T01:12:56;17.80;99.20
13482;DHT22;6813;60.352;15.746;2022-08-01T01:15:32;17.80;99.40
13482;DHT22;6813;60.352;15.746;2022-08-01T01:18:09;17.80;99.60
13482;DHT22;6813;60.352;15.746;2022-08-01T01:20:44;17.80;99.60
13482;DHT22;6813;60.352;15.746;2022-08-01T01:23:50;17.70;99.60
13482;DHT22;6813;60.352;15.746;2022-08-01T01:31:55;17.20;99.90
13482;DHT22;6813;60.352;15.746;2022-08-01T01:34:22;17.00;99.90
13482;DHT22;6813;60.352;15.746;2022-08-01T01:36:50;16.90;99.90
13482;DHT22;6813;60.352;15.746;2022-08-01T01:39:18;16.70;99.90
13482;DHT22;6813;60.352;15.746;2022-08-01T01:41:46;16.60;99.90
13482;DHT22;6813;60.352;15.746;2022-08-01T01:44:15;16.60;99.90
13482;DHT22;6813;60.352;15.746;2022-08-01T01:46:42;16.50;99.90
13482;DHT22;6813;60.352;15.746;2022-08-01T01:49:08;16.50;99.90
13482;DHT22;6813;60.352;15.746;2022-08-01T01:51:38;16.50;99.90
13482;DHT22;6813;60.352;15.746;2022-08-01T01:54:05;16.40;99.90
13482;DHT22;6813;60.352;15.746;2022-08-01T01:56:33;16.50;99.90
13482;DHT22;6813;60.352;15.746;2022-08-01T01:59:02;16.50;99.90
13482;DHT22;6813;60.352;15.746;2022-08-01T02:01:31;16.40;99.90
13482;DHT22;6813;60.352;15.746;2022-08-01T02:03:58;16.40;99.90
13482;DHT22;6813;60.352;15.746;2022-08-01T02:06:26;16.40;99.90
13482;DHT22;6813;60.352;15.746;2022-08-01T02:08:53;16.40;99.90
13482;DHT22;6813;60.352;15.746;2022-08-01T02:11:20;16.40;99.90
13482;DHT22;6813;60.352;15.746;2022-08-01T02:13:57;16.30;99.90
13482;DHT22;6813;60.352;15.746;2022-08-01T02:16:27;16.30;99.90
13482;DHT22;6813;60.352;15.746;2022-08-01T02:18:54;16.50;99.90
13482;DHT22;6813;60.352;15.746;2022-08-01T02:21:28;16.50;99.90
13482;DHT22;6813;60.352;15.746;2022-08-01T02:24:09;16.50;99.90
13482;DHT22;6813;60.352;15.746;2022-08-01T02:26:39;16.40;99.90
13482;DHT22;6813;60.352;15.746;2022-08-01T02:29:10;16.50;99.90
13482;DHT22;6813;60.352;15.746;2022-08-01T02:31:39;16.60;99.90
13482;DHT22;6813;60.352;15.746;2022-08-01T02:34:09;16.70;99.90
13482;DHT22;6813;60.352;15.746;2022-08-01T02:36:36;16.70;99.90
13482;DHT22;6813;60.352;15.746;2022-08-01T02:39:12;16.70;99.90
13482;DHT22;6813;60.352;15.746;2022-08-01T02:41:41;16.60;99.90
13482;DHT22;6813;60.352;15.746;2022-08-01T02:44:09;16.40;99.90
13482;DHT22;6813;60.352;15.746;2022-08-01T02:47:19;16.20;99.90
13482;DHT22;6813;60.352;15.746;2022-08-01T02:49:33;16.00;99.90
13482;DHT22;6813;60.352;15.746;2022-08-01T02:52:09;15.90;99.90
13482;DHT22;6813;60.352;15.746;2022-08-01T02:54:36;16.00;99.90
13482;DHT22;6813;60.352;15.746;2022-08-01T02:57:03;16.10;99.90
13482;DHT22;6813;60.352;15.746;2022-08-01T02:59:31;16.00;99.90
13482;DHT22;6813;60.352;15.746;2022-08-01T03:02:00;15.90;99.90
13482;DHT22;6813;60.352;15.746;2022-08-01T03:04:27;15.90;99.90
13482;DHT22;6813;60.352;15.746;2022-08-01T03:06:54;15.80;99.90
13482;DHT22;6813;60.352;15.746;2022-08-01T03:09:21;15.80;99.90
13482;DHT22;6813;60.352;15.746;2022-08-01T03:11:48;15.70;99.90
13482;DHT22;6813;60.352;15.746;2022-08-01T03:14:14;15.60;99.90
13482;DHT22;6813;60.352;15.746;2022-08-01T03:16:42;15.70;99.90
13482;DHT22;6813;60.352;15.746;2022-08-01T03:19:11;15.70;99.90
13482;DHT22;6813;60.352;15.746;2022-08-01T03:21:38;15.60;99.90
13482;DHT22;6813;60.352;15.746;2022-08-01T03:24:05;15.50;99.90
13482;DHT22;6813;60.352;15.746;2022-08-01T03:26:34;15.60;99.90
13482;DHT22;6813;60.352;15.746;2022-08-01T03:29:06;15.70;99.90
13482;DHT22;6813;60.352;15.746;2022-08-01T03:31:36;15.70;99.90
13482;DHT22;6813;60.352;15.746;2022-08-01T03:34:03;15.80;99.90
13482;DHT22;6813;60.352;15.746;2022-08-01T03:36:32;15.80;99.90
13482;DHT22;6813;60.352;15.746;2022-08-01T03:39:02;15.90;99.90
13482;DHT22;6813;60.352;15.746;2022-08-01T03:41:33;15.80;99.90
13482;DHT22;6813;60.352;15.746;2022-08-01T03:44:05;15.90;99.90
13482;DHT22;6813;60.352;15.746;2022-08-01T03:46:38;16.00;99.90
13482;DHT22;6813;60.352;15.746;2022-08-01T03:49:10;16.10;99.90
13482;DHT22;6813;60.352;15.746;2022-08-01T03:51:37;16.10;99.90
13482;DHT22;6813;60.352;15.746;2022-08-01T03:54:04;16.10;99.90
13482;DHT22;6813;60.352;15.746;2022-08-01T03:56:31;16.00;99.90
13482;DHT22;6813;60.352;15.746;2022-08-01T03:58:59;16.00;99.90
13482;DHT22;6813;60.352;15.746;2022-08-01T04:01:28;16.00;99.90
13482;DHT22;6813;60.352;15.746;2022-08-01T04:03:54;15.90;99.90
13482;DHT22;6813;60.352;15.746;2022-08-01T04:06:20;16.00;99.90
13482;DHT22;6813;60.352;15.746;2022-08-01T04:08:46;16.20;99.90
13482;DHT22;6813;60.352;15.746;2022-08-01T04:11:22;16.30;99.90
13482;DHT22;6813;60.352;15.746;2022-08-01T04:13:48;16.50;99.90
13482;DHT22;6813;60.352;15.746;2022-08-01T04:16:14;16.40;99.90
13482;DHT22;6813;60.352;15.746;2022-08-01T04:18:39;16.30;99.90
13482;DHT22;6813;60.352;15.746;2022-08-01T04:21:05;16.20;99.90
13482;DHT22;6813;60.352;15.746;2022-08-01T04:23:32;16.10;99.90
13482;DHT22;6813;60.352;15.746;2022-08-01T04:26:02;16.00;99.90
13482;DHT22;6813;60.352;15.746;2022-08-01T04:28:31;15.90;99.90
13482;DHT22;6813;60.352;15.746;2022-08-01T04:30:59;15.90;99.90
13482;DHT22;6813;60.352;15.746;2022-08-01T04:33:26;15.90;99.90
13482;DHT22;6813;60.352;15.746;2022-08-01T04:35:54;15.90;99.90
13482;DHT22;6813;60.352;15.746;2022-08-01T04:38:23;16.00;99.90
13482;DHT22;6813;60.352;15.746;2022-08-01T04:40:54;16.00;99.90
13482;DHT22;6813;60.352;15.746;2022-08-01T04:43:20;16.10;99.90
13482;DHT22;6813;60.352;15.746;2022-08-01T04:45:47;16.10;99.90
13482;DHT22;6813;60.352;15.746;2022-08-01T04:48:16;16.10;99.90
13482;DHT22;6813;60.352;15.746;2022-08-01T04:50:42;16.10;99.90
13482;DHT22;6813;60.352;15.746;2022-08-01T04:53:18;16.10;99.90
13482;DHT22;6813;60.352;15.746;2022-08-01T04:55:44;16.00;99.90
13482;DHT22;6813;60.352;15.746;2022-08-01T04:58:11;16.00;99.90
13482;DHT22;6813;60.352;15.746;2022-08-01T05:00:37;16.00;99.90
13482;DHT22;6813;60.352;15.746;2022-08-01T05:03:03;16.00;99.90
13482;DHT22;6813;60.352;15.746;2022-08-01T05:05:30;16.10;99.90
13482;DHT22;6813;60.352;15.746;2022-08-01T05:07:57;16.10;99.90
13482;DHT22;6813;60.352;15.746;2022-08-01T05:10:23;16.10;99.90
13482;DHT22;6813;60.352;15.746;2022-08-01T05:12:48;16.20;99.90
13482;DHT22;6813;60.352;15.746;2022-08-01T05:15:14;16.20;99.90
13482;DHT22;6813;60.352;15.746;2022-08-01T05:17:40;16.20;99.90
13482;DHT22;6813;60.352;15.746;2022-08-01T05:20:07;16.20;99.90
13482;DHT22;6813;60.352;15.746;2022-08-01T05:22:33;16.10;99.90
13482;DHT22;6813;60.352;15.746;2022-08-01T05:24:59;16.00;99.90
13482;DHT22;6813;60.352;15.746;2022-08-01T05:27:25;16.00;99.90
13482;DHT22;6813;60.352;15.746;2022-08-01T05:29:51;16.00;99.90
13482;DHT22;6813;60.352;15.746;2022-08-01T05:32:17;16.00;99.90
13482;DHT22;6813;60.352;15.746;2022-08-01T05:34:43;16.00;99.90
13482;DHT22;6813;60.352;15.746;2022-08-01T05:37:09;16.10;99.90
13482;DHT22;6813;60.352;15.746;2022-08-01T05:39:35;16.10;99.90
13482;DHT22;6813;60.352;15.746;2022-08-01T05:42:01;16.10;99.90
13482;DHT22;6813;60.352;15.746;2022-08-01T05:44:27;16.10;99.90
13482;DHT22;6813;60.352;15.746;2022-08-01T05:46:53;16.10;99.90
13482;DHT22;6813;60.352;15.746;2022-08-01T05:49:18;16.20;99.90
13482;DHT22;6813;60.352;15.746;2022-08-01T05:51:44;16.20;99.90
13482;DHT22;6813;60.352;15.746;2022-08-01T05:54:10;16.30;99.90
13482;DHT22;6813;60.352;15.746;2022-08-01T05:56:36;16.30;99.90
13482;DHT22;6813;60.352;15.746;2022-08-01T05:59:01;16.20;99.90
13482;DHT22;6813;60.352;15.746;2022-08-01T06:01:27;16.20;99.90
13482;DHT22;6813;60.352;15.746;2022-08-01T06:03:53;16.20;99.90
13482;DHT22;6813;60.352;15.746;2022-08-01T06:06:20;16.20;99.90
13482;DHT22;6813;60.352;15.746;2022-08-01T06:08:46;16.30;99.90
13482;DHT22;6813;60.352;15.746;2022-08-01T06:11:12;16.30;99.90
13482;DHT22;6813;60.352;15.746;2022-08-01T06:13:38;16.30;99.90
13482;DHT22;6813;60.352;15.746;2022-08-01T06:16:04;16.30;99.90
13482;DHT22;6813;60.352;15.746;2022-08-01T06:18:30;16.30;99.90
13482;DHT22;6813;60.352;15.746;2022-08-01T06:20:55;16.40;99.90
13482;DHT22;6813;60.352;15.746;2022-08-01T06:23:21;16.40;99.90
13482;DHT22;6813;60.352;15.746;2022-08-01T06:25:48;16.40;99.90
13482;DHT22;6813;60.352;15.746;2022-08-01T06:28:13;16.40;99.90
13482;DHT22;6813;60.352;15.746;2022-08-01T06:30:39;16.60;99.90
13482;DHT22;6813;60.352;15.746;2022-08-01T06:33:05;16.60;99.90
13482;DHT22;6813;60.352;15.746;2022-08-01T06:35:30;16.60;99.90
13482;DHT22;6813;60.352;15.746;2022-08-01T06:37:57;16.60;99.90
13482;DHT22;6813;60.352;15.746;2022-08-01T06:40:23;16.60;99.90
13482;DHT22;6813;60.352;15.746;2022-08-01T06:42:49;16.50;99.90
13482;DHT22;6813;60.352;15.746;2022-08-01T06:45:15;16.50;99.90
13482;DHT22;6813;60.352;15.746;2022-08-01T06:47:44;16.50;99.90
13482;DHT22;6813;60.352;15.746;2022-08-01T06:50:11;16.60;99.90
13482;DHT22;6813;60.352;15.746;2022-08-01T06:52:37;16.60;99.90
13482;DHT22;6813;60.352;15.746;2022-08-01T06:55:03;16.70;99.90
13482;DHT22;6813;60.352;15.746;2022-08-01T06:57:29;16.70;99.90
13482;DHT22;6813;60.352;15.746;2022-08-01T06:59:55;16.80;99.90
13482;DHT22;6813;60.352;15.746;2022-08-01T07:02:21;16.70;99.90
13482;DHT22;6813;60.352;15.746;2022-08-01T07:04:47;16.80;99.90
13482;DHT22;6813;60.352;15.746;2022-08-01T07:07:13;17.00;99.90
13482;DHT22;6813;60.352;15.746;2022-08-01T07:09:39;17.10;99.90
13482;DHT22;6813;60.352;15.746;2022-08-01T07:12:07;17.10;99.90
13482;DHT22;6813;60.352;15.746;2022-08-01T07:14:33;17.20;99.90
13482;DHT22;6813;60.352;15.746;2022-08-01T07:16:59;17.20;99.90
13482;DHT22;6813;60.352;15.746;2022-08-01T07:19:25;17.40;99.90
13482;DHT22;6813;60.352;15.746;2022-08-01T07:21:50;17.40;99.90
13482;DHT22;6813;60.352;15.746;2022-08-01T07:24:16;17.30;99.90
13482;DHT22;6813;60.352;15.746;2022-08-01T07:26:44;17.30;99.90
13482;DHT22;6813;60.352;15.746;2022-08-01T07:29:10;17.30;99.90
13482;DHT22;6813;60.352;15.746;2022-08-01T07:31:36;17.30;99.90
13482;DHT22;6813;60.352;15.746;2022-08-01T07:34:02;17.40;99.90
13482;DHT22;6813;60.352;15.746;2022-08-01T07:36:27;17.30;99.90
13482;DHT22;6813;60.352;15.746;2022-08-01T07:38:53;17.20;99.90
13482;DHT22;6813;60.352;15.746;2022-08-01T07:41:19;17.20;99.90
13482;DHT22;6813;60.352;15.746;2022-08-01T07:43:45;17.30;99.90
13482;DHT22;6813;60.352;15.746;2022-08-01T07:46:10;17.10;99.90
13482;DHT22;6813;60.352;15.746;2022-08-01T07:48:36;17.10;99.90
13482;DHT22;6813;60.352;15.746;2022-08-01T07:51:02;17.30;99.90
13482;DHT22;6813;60.352;15.746;2022-08-01T07:53:27;17.40;99.90
13482;DHT22;6813;60.352;15.746;2022-08-01T07:55:54;17.50;99.90
13482;DHT22;6813;60.352;15.746;2022-08-01T07:58:20;17.60;99.90
13482;DHT22;6813;60.352;15.746;2022-08-01T08:00:45;17.50;99.90
13482;DHT22;6813;60.352;15.746;2022-08-01T08:03:11;17.60;99.90
13482;DHT22;6813;60.352;15.746;2022-08-01T08:05:37;17.70;99.90
13482;DHT22;6813;60.352;15.746;2022-08-01T08:08:07;17.90;99.90
13482;DHT22;6813;60.352;15.746;2022-08-01T08:10:33;18.10;99.90
13482;DHT22;6813;60.352;15.746;2022-08-01T08:13:00;18.40;99.90
13482;DHT22;6813;60.352;15.746;2022-08-01T08:15:27;18.60;99.90
13482;DHT22;6813;60.352;15.746;2022-08-01T08:17:53;18.80;99.90
13482;DHT22;6813;60.352;15.746;2022-08-01T08:20:19;18.90;99.90
13482;DHT22;6813;60.352;15.746;2022-08-01T08:22:46;19.00;99.90
13482;DHT22;6813;60.352;15.746;2022-08-01T08:25:12;19.00;99.90
13482;DHT22;6813;60.352;15.746;2022-08-01T08:27:38;18.60;99.90
13482;DHT22;6813;60.352;15.746;2022-08-01T08:30:05;19.00;99.90
13482;DHT22;6813;60.352;15.746;2022-08-01T08:32:33;19.30;99.90
13482;DHT22;6813;60.352;15.746;2022-08-01T08:34:59;19.60;99.90
13482;DHT22;6813;60.352;15.746;2022-08-01T08:37:25;19.90;99.90
13482;DHT22;6813;60.352;15.746;2022-08-01T08:39:51;20.20;99.90
13482;DHT22;6813;60.352;15.746;2022-08-01T08:42:18;20.40;99.90
13482;DHT22;6813;60.352;15.746;2022-08-01T08:44:44;20.30;99.90
13482;DHT22;6813;60.352;15.746;2022-08-01T08:47:11;20.30;99.90
13482;DHT22;6813;60.352;15.746;2022-08-01T08:49:38;20.60;99.90
13482;DHT22;6813;60.352;15.746;2022-08-01T08:52:04;20.70;99.90
13482;DHT22;6813;60.352;15.746;2022-08-01T08:54:32;20.90;99.90
13482;DHT22;6813;60.352;15.746;2022-08-01T08:56:59;21.10;99.90
13482;DHT22;6813;60.352;15.746;2022-08-01T08:59:25;21.10;99.90
13482;DHT22;6813;60.352;15.746;2022-08-01T09:01:52;21.00;99.90
13482;DHT22;6813;60.352;15.746;2022-08-01T09:04:18;21.00;99.90
13482;DHT22;6813;60.352;15.746;2022-08-01T09:06:46;20.80;99.90
13482;DHT22;6813;60.352;15.746;2022-08-01T09:09:12;20.60;99.90
13482;DHT22;6813;60.352;15.746;2022-08-01T09:11:37;20.30;99.90
13482;DHT22;6813;60.352;15.746;2022-08-01T09:14:17;20.10;99.90
13482;DHT22;6813;60.352;15.746;2022-08-01T09:17:06;20.10;99.90
13482;DHT22;6813;60.352;15.746;2022-08-01T09:19:45;20.30;99.90
13482;DHT22;6813;60.352;15.746;2022-08-01T09:22:15;20.40;99.90
13482;DHT22;6813;60.352;15.746;2022-08-01T09:24:58;20.50;99.90
13482;DHT22;6813;60.352;15.746;2022-08-01T09:27:24;20.60;99.90
13482;DHT22;6813;60.352;15.746;2022-08-01T09:29:52;20.70;99.90
13482;DHT22;6813;60.352;15.746;2022-08-01T09:32:19;20.80;99.90
13482;DHT22;6813;60.352;15.746;2022-08-01T09:34:44;20.70;99.90
13482;DHT22;6813;60.352;15.746;2022-08-01T09:37:12;20.30;99.90
13482;DHT22;6813;60.352;15.746;2022-08-01T09:39:43;20.10;99.90
13482;DHT22;6813;60.352;15.746;2022-08-01T09:42:22;20.10;99.90
13482;DHT22;6813;60.352;15.746;2022-08-01T09:44:49;20.10;99.90
13482;DHT22;6813;60.352;15.746;2022-08-01T09:47:15;20.30;99.90
13482;DHT22;6813;60.352;15.746;2022-08-01T09:49:42;20.30;99.90
13482;DHT22;6813;60.352;15.746;2022-08-01T09:54:41;20.60;99.90
13482;DHT22;6813;60.352;15.746;2022-08-01T09:59:36;20.80;99.90
13482;DHT22;6813;60.352;15.746;2022-08-01T10:02:03;20.90;99.90
13482;DHT22;6813;60.352;15.746;2022-08-01T10:04:29;20.90;99.90
13482;DHT22;6813;60.352;15.746;2022-08-01T10:07:04;20.70;99.90
13482;DHT22;6813;60.352;15.746;2022-08-01T10:09:35;20.20;99.90
13482;DHT22;6813;60.352;15.746;2022-08-01T10:12:02;20.00;99.90
13482;DHT22;6813;60.352;15.746;2022-08-01T10:14:28;19.90;99.90
13482;DHT22;6813;60.352;15.746;2022-08-01T10:16:56;19.80;99.90
13482;DHT22;6813;60.352;15.746;2022-08-01T10:19:26;19.90;99.90
13482;DHT22;6813;60.352;15.746;2022-08-01T10:21:53;20.10;99.90
13482;DHT22;6813;60.352;15.746;2022-08-01T10:24:23;20.20;99.90
13482;DHT22;6813;60.352;15.746;2022-08-01T10:26:57;20.10;99.90
13482;DHT22;6813;60.352;15.746;2022-08-01T10:29:26;19.90;99.90
13482;DHT22;6813;60.352;15.746;2022-08-01T10:31:52;19.90;99.90
13482;DHT22;6813;60.352;15.746;2022-08-01T10:34:19;19.90;99.90
13482;DHT22;6813;60.352;15.746;2022-08-01T10:36:48;20.10;99.90
13482;DHT22;6813;60.352;15.746;2022-08-01T10:39:14;20.00;99.90
13482;DHT22;6813;60.352;15.746;2022-08-01T10:41:41;19.90;99.90
13482;DHT22;6813;60.352;15.746;2022-08-01T10:44:07;19.90;99.90
13482;DHT22;6813;60.352;15.746;2022-08-01T10:46:37;19.80;99.90
13482;DHT22;6813;60.352;15.746;2022-08-01T10:49:22;19.60;99.90
13482;DHT22;6813;60.352;15.746;2022-08-01T10:51:49;19.60;99.90
13482;DHT22;6813;60.352;15.746;2022-08-01T10:54:15;19.80;99.90
13482;DHT22;6813;60.352;15.746;2022-08-01T10:56:50;19.70;99.90
13482;DHT22;6813;60.352;15.746;2022-08-01T10:59:27;19.80;99.90
13482;DHT22;6813;60.352;15.746;2022-08-01T11:02:04;19.80;99.90
13482;DHT22;6813;60.352;15.746;2022-08-01T11:04:54;19.90;99.90
13482;DHT22;6813;60.352;15.746;2022-08-01T11:07:48;20.10;99.90
13482;DHT22;6813;60.352;15.746;2022-08-01T11:10:23;20.00;99.90
13482;DHT22;6813;60.352;15.746;2022-08-01T11:12:50;19.90;99.90
13482;DHT22;6813;60.352;15.746;2022-08-01T11:15:16;20.30;99.90
13482;DHT22;6813;60.352;15.746;2022-08-01T11:17:49;20.50;99.90
13482;DHT22;6813;60.352;15.746;2022-08-01T11:20:23;20.80;99.90
13482;DHT22;6813;60.352;15.746;2022-08-01T11:30:49;20.30;99.90
13482;DHT22;6813;60.352;15.746;2022-08-01T11:33:17;20.50;99.90
13482;DHT22;6813;60.352;15.746;2022-08-01T11:38:42;19.50;99.90
13482;DHT22;6813;60.352;15.746;2022-08-01T11:44:03;20.10;99.90
13482;DHT22;6813;60.352;15.746;2022-08-01T11:49:30;20.30;99.90
13482;DHT22;6813;60.352;15.746;2022-08-01T11:54:27;20.40;99.90
13482;DHT22;6813;60.352;15.746;2022-08-01T11:56:58;20.60;99.90
13482;DHT22;6813;60.352;15.746;2022-08-01T11:59:24;20.60;99.90
13482;DHT22;6813;60.352;15.746;2022-08-01T12:01:50;20.40;99.90
13482;DHT22;6813;60.352;15.746;2022-08-01T12:04:16;19.80;99.90
13482;DHT22;6813;60.352;15.746;2022-08-01T12:06:42;19.50;99.90
13482;DHT22;6813;60.352;15.746;2022-08-01T12:09:21;19.60;99.90
13482;DHT22;6813;60.352;15.746;2022-08-01T12:11:47;19.60;99.90
13482;DHT22;6813;60.352;15.746;2022-08-01T12:14:19;19.70;99.90
13482;DHT22;6813;60.352;15.746;2022-08-01T12:16:52;19.90;99.90
13482;DHT22;6813;60.352;15.746;2022-08-01T12:19:20;20.20;99.90
13482;DHT22;6813;60.352;15.746;2022-08-01T12:22:13;20.30;99.90
13482;DHT22;6813;60.352;15.746;2022-08-01T12:24:42;20.00;99.90
13482;DHT22;6813;60.352;15.746;2022-08-01T12:27:09;19.80;99.90
13482;DHT22;6813;60.352;15.746;2022-08-01T12:29:40;19.60;99.90
13482;DHT22;6813;60.352;15.746;2022-08-01T12:32:32;19.70;99.90
13482;DHT22;6813;60.352;15.746;2022-08-01T12:35:04;19.30;99.90
13482;DHT22;6813;60.352;15.746;2022-08-01T12:37:34;19.00;99.90
13482;DHT22;6813;60.352;15.746;2022-08-01T12:40:06;19.10;99.90
13482;DHT22;6813;60.352;15.746;2022-08-01T12:42:39;19.40;99.90
13482;DHT22;6813;60.352;15.746;2022-08-01T12:45:08;19.70;99.90
13482;DHT22;6813;60.352;15.746;2022-08-01T12:47:36;19.40;99.90
13482;DHT22;6813;60.352;15.746;2022-08-01T12:50:06;19.30;99.90
13482;DHT22;6813;60.352;15.746;2022-08-01T12:52:33;19.10;99.90
13482;DHT22;6813;60.352;15.746;2022-08-01T12:55:11;19.00;99.90
13482;DHT22;6813;60.352;15.746;2022-08-01T12:57:40;18.70;99.90
13482;DHT22;6813;60.352;15.746;2022-08-01T13:00:11;18.70;99.90
13482;DHT22;6813;60.352;15.746;2022-08-01T13:02:38;18.60;99.90
13482;DHT22;6813;60.352;15.746;2022-08-01T13:05:05;18.80;99.90
13482;DHT22;6813;60.352;15.746;2022-08-01T13:07:38;18.80;99.90
13482;DHT22;6813;60.352;15.746;2022-08-01T13:10:05;19.10;99.90
13482;DHT22;6813;60.352;15.746;2022-08-01T13:12:31;19.50;99.90
13482;DHT22;6813;60.352;15.746;2022-08-01T13:14:57;19.80;99.90
13482;DHT22;6813;60.352;15.746;2022-08-01T13:17:33;20.10;99.90
13482;DHT22;6813;60.352;15.746;2022-08-01T13:20:01;20.10;99.90
13482;DHT22;6813;60.352;15.746;2022-08-01T13:22:34;20.00;99.90
13482;DHT22;6813;60.352;15.746;2022-08-01T13:25:14;20.20;99.90
13482;DHT22;6813;60.352;15.746;2022-08-01T13:27:40;20.20;99.90
13482;DHT22;6813;60.352;15.746;2022-08-01T13:30:14;19.80;99.90
13482;DHT22;6813;60.352;15.746;2022-08-01T13:32:40;19.30;99.90
13482;DHT22;6813;60.352;15.746;2022-08-01T13:35:12;19.50;99.90
13482;DHT22;6813;60.352;15.746;2022-08-01T13:37:40;19.70;99.90
13482;DHT22;6813;60.352;15.746;2022-08-01T13:40:08;19.70;99.90
13482;DHT22;6813;60.352;15.746;2022-08-01T13:42:34;19.70;99.90
13482;DHT22;6813;60.352;15.746;2022-08-01T13:45:00;19.50;99.90
13482;DHT22;6813;60.352;15.746;2022-08-01T13:47:26;19.60;99.90
13482;DHT22;6813;60.352;15.746;2022-08-01T13:49:52;19.90;99.90
13482;DHT22;6813;60.352;15.746;2022-08-01T13:52:17;19.90;99.90
13482;DHT22;6813;60.352;15.746;2022-08-01T13:54:43;19.70;99.90
13482;DHT22;6813;60.352;15.746;2022-08-01T13:57:09;19.50;99.90
13482;DHT22;6813;60.352;15.746;2022-08-01T13:59:35;19.40;99.90
13482;DHT22;6813;60.352;15.746;2022-08-01T14:02:01;19.40;99.90
13482;DHT22;6813;60.352;15.746;2022-08-01T14:04:27;19.30;99.90
13482;DHT22;6813;60.352;15.746;2022-08-01T14:06:52;19.10;99.90
13482;DHT22;6813;60.352;15.746;2022-08-01T14:09:18;19.10;99.90
13482;DHT22;6813;60.352;15.746;2022-08-01T14:11:45;19.10;99.90
13482;DHT22;6813;60.352;15.746;2022-08-01T14:14:11;19.30;99.90
13482;DHT22;6813;60.352;15.746;2022-08-01T14:16:37;19.50;99.90
13482;DHT22;6813;60.352;15.746;2022-08-01T14:19:03;19.60;99.90
13482;DHT22;6813;60.352;15.746;2022-08-01T14:21:29;19.70;99.90
13482;DHT22;6813;60.352;15.746;2022-08-01T14:23:54;19.50;99.90
13482;DHT22;6813;60.352;15.746;2022-08-01T14:26:20;19.30;99.90
13482;DHT22;6813;60.352;15.746;2022-08-01T14:28:46;19.20;99.90
13482;DHT22;6813;60.352;15.746;2022-08-01T14:31:11;19.20;99.90
13482;DHT22;6813;60.352;15.746;2022-08-01T14:33:37;19.30;99.90
13482;DHT22;6813;60.352;15.746;2022-08-01T14:36:03;19.50;99.90
13482;DHT22;6813;60.352;15.746;2022-08-01T14:38:29;19.70;99.90
13482;DHT22;6813;60.352;15.746;2022-08-01T14:40:55;19.90;99.90
13482;DHT22;6813;60.352;15.746;2022-08-01T14:43:20;20.00;99.90
13482;DHT22;6813;60.352;15.746;2022-08-01T14:45:47;19.80;99.90
13482;DHT22;6813;60.352;15.746;2022-08-01T14:48:16;19.70;99.90
13482;DHT22;6813;60.352;15.746;2022-08-01T14:50:42;19.80;99.90
13482;DHT22;6813;60.352;15.746;2022-08-01T14:53:08;19.80;99.90
13482;DHT22;6813;60.352;15.746;2022-08-01T14:55:33;19.80;99.90
13482;DHT22;6813;60.352;15.746;2022-08-01T14:57:59;19.70;99.90
13482;DHT22;6813;60.352;15.746;2022-08-01T15:00:25;19.60;99.90
13482;DHT22;6813;60.352;15.746;2022-08-01T15:02:50;19.50;99.90
13482;DHT22;6813;60.352;15.746;2022-08-01T15:05:16;19.30;99.90
13482;DHT22;6813;60.352;15.746;2022-08-01T15:07:42;19.10;99.90
13482;DHT22;6813;60.352;15.746;2022-08-01T15:10:08;19.10;99.90
13482;DHT22;6813;60.352;15.746;2022-08-01T15:12:34;19.20;99.90
13482;DHT22;6813;60.352;15.746;2022-08-01T15:15:00;19.40;99.90
13482;DHT22;6813;60.352;15.746;2022-08-01T15:17:29;19.40;99.90
13482;DHT22;6813;60.352;15.746;2022-08-01T15:19:57;19.50;99.90
13482;DHT22;6813;60.352;15.746;2022-08-01T15:22:24;19.50;99.90
13482;DHT22;6813;60.352;15.746;2022-08-01T15:24:51;19.80;99.90
13482;DHT22;6813;60.352;15.746;2022-08-01T15:27:17;19.80;99.90
13482;DHT22;6813;60.352;15.746;2022-08-01T15:29:43;20.00;99.90
13482;DHT22;6813;60.352;15.746;2022-08-01T15:32:10;20.20;99.90
13482;DHT22;6813;60.352;15.746;2022-08-01T15:34:37;20.30;99.90
13482;DHT22;6813;60.352;15.746;2022-08-01T15:37:04;20.00;99.90
13482;DHT22;6813;60.352;15.746;2022-08-01T15:39:30;19.60;99.90
13482;DHT22;6813;60.352;15.746;2022-08-01T15:42:12;19.50;99.90
13482;DHT22;6813;60.352;15.746;2022-08-01T15:44:38;19.30;99.90
13482;DHT22;6813;60.352;15.746;2022-08-01T15:47:05;19.30;99.90
13482;DHT22;6813;60.352;15.746;2022-08-01T15:49:31;19.30;99.90
13482;DHT22;6813;60.352;15.746;2022-08-01T15:51:57;19.40;99.90
13482;DHT22;6813;60.352;15.746;2022-08-01T15:54:23;19.40;99.90
13482;DHT22;6813;60.352;15.746;2022-08-01T15:56:49;19.40;99.90
13482;DHT22;6813;60.352;15.746;2022-08-01T15:59:14;19.30;99.90
13482;DHT22;6813;60.352;15.746;2022-08-01T16:01:40;19.40;99.90
13482;DHT22;6813;60.352;15.746;2022-08-01T16:04:07;19.60;99.90
13482;DHT22;6813;60.352;15.746;2022-08-01T16:06:34;19.80;99.90